createdAt,value
2018-10-07T00:01:58.775Z,15.50
2018-10-07T00:04:25.881Z,15.50
2018-10-07T00:06:53.025Z,15.50
2018-10-07T00:09:20.173Z,15.50
2018-10-07T00:11:47.832Z,15.40
2018-10-07T00:14:15.048Z,15.40
2018-10-07T00:16:42.258Z,15.40
2018-10-07T00:19:09.473Z,15.40
2018-10-07T00:21:36.692Z,15.30
2018-10-07T00:24:12.367Z,15.30
2018-10-07T00:26:40.804Z,15.40
2018-10-07T00:29:19.957Z,15.20
2018-10-07T00:31:54.912Z,15.30
2018-10-07T00:34:25.510Z,15.30
2018-10-07T00:36:52.784Z,15.20
2018-10-07T00:39:19.878Z,15.20
2018-10-07T00:41:47.005Z,15.20
2018-10-07T00:44:14.723Z,15.10
2018-10-07T00:46:41.816Z,15.10
2018-10-07T00:49:11.168Z,15.10
2018-10-07T00:51:38.335Z,15.10
2018-10-07T00:54:05.713Z,15.00
2018-10-07T00:56:32.877Z,15.00
2018-10-07T00:59:00.107Z,15.00
2018-10-07T01:01:27.306Z,14.90
2018-10-07T01:03:54.425Z,14.90
2018-10-07T01:06:22.128Z,14.90
2018-10-07T01:08:49.258Z,14.80
2018-10-07T01:11:16.405Z,14.80
2018-10-07T01:13:43.516Z,14.80
2018-10-07T01:16:11.002Z,14.80
2018-10-07T01:18:38.085Z,14.80
2018-10-07T01:21:05.341Z,14.70
2018-10-07T01:23:32.447Z,14.70
2018-10-07T01:25:59.625Z,14.60
2018-10-07T01:28:26.745Z,14.60
2018-10-07T01:30:53.874Z,14.60
2018-10-07T01:33:21.000Z,14.60
2018-10-07T01:35:48.193Z,14.50
2018-10-07T01:38:15.645Z,14.50
2018-10-07T01:40:42.781Z,14.50
2018-10-07T01:43:09.974Z,14.50
2018-10-07T01:45:37.041Z,14.50
2018-10-07T01:48:06.321Z,14.40
2018-10-07T01:50:33.425Z,14.40
2018-10-07T01:53:00.614Z,14.30
2018-10-07T01:55:27.735Z,14.30
2018-10-07T01:57:54.876Z,14.20
2018-10-07T02:00:22.007Z,14.30
2018-10-07T02:02:49.118Z,14.20
2018-10-07T02:05:16.225Z,14.20
2018-10-07T02:07:43.415Z,14.30
2018-10-07T02:10:12.584Z,14.30
2018-10-07T02:12:39.727Z,14.20
2018-10-07T02:15:06.927Z,14.20
2018-10-07T02:17:34.084Z,14.20
2018-10-07T02:20:01.173Z,14.20
2018-10-07T02:22:28.419Z,14.30
2018-10-07T02:24:55.565Z,14.30
2018-10-07T02:27:22.721Z,14.30
2018-10-07T02:29:49.860Z,14.30
2018-10-07T02:32:16.959Z,14.30
2018-10-07T02:34:44.160Z,14.30
2018-10-07T02:37:11.881Z,14.40
2018-10-07T02:39:39.038Z,14.40
2018-10-07T02:42:06.663Z,14.40
2018-10-07T02:44:33.827Z,14.40
2018-10-07T02:47:01.001Z,14.30
2018-10-07T02:49:29.279Z,14.20
2018-10-07T02:51:56.568Z,14.20
2018-10-07T02:54:24.196Z,14.10
2018-10-07T02:56:51.315Z,14.10
2018-10-07T02:59:18.463Z,14.10
2018-10-07T03:01:45.600Z,14.00
2018-10-07T03:04:12.777Z,14.00
2018-10-07T03:06:39.903Z,13.90
2018-10-07T03:09:07.789Z,14.00
2018-10-07T03:11:35.784Z,13.90
2018-10-07T03:14:02.885Z,14.00
2018-10-07T03:16:30.006Z,13.90
2018-10-07T03:18:57.145Z,13.80
2018-10-07T03:21:24.329Z,13.80
2018-10-07T03:23:51.481Z,13.80
2018-10-07T03:26:18.635Z,13.80
2018-10-07T03:28:46.409Z,13.80
2018-10-07T03:31:13.579Z,13.80
2018-10-07T03:33:40.825Z,13.80
2018-10-07T03:36:08.716Z,13.80
2018-10-07T03:38:35.823Z,13.60
2018-10-07T03:41:03.057Z,13.30
2018-10-07T03:43:30.323Z,13.40
2018-10-07T03:45:57.380Z,13.40
2018-10-07T03:48:24.515Z,13.50
2018-10-07T03:50:51.673Z,13.60
2018-10-07T03:53:18.815Z,13.70
2018-10-07T03:55:46.021Z,13.80
2018-10-07T03:58:13.219Z,13.80
2018-10-07T04:00:41.136Z,13.90
2018-10-07T04:03:08.293Z,13.90
2018-10-07T04:05:35.455Z,13.80
2018-10-07T04:08:02.543Z,13.80
2018-10-07T04:10:29.651Z,13.90
2018-10-07T04:12:56.843Z,13.90
2018-10-07T04:15:23.972Z,13.80
2018-10-07T04:17:57.734Z,13.80
2018-10-07T04:20:25.030Z,13.90
2018-10-07T04:22:52.137Z,13.80
2018-10-07T04:25:19.285Z,13.80
2018-10-07T04:27:47.489Z,13.70
2018-10-07T04:30:14.662Z,13.70
2018-10-07T04:32:41.803Z,13.80
2018-10-07T04:35:08.921Z,13.70
2018-10-07T04:37:36.140Z,13.70
2018-10-07T04:40:03.358Z,13.70
2018-10-07T04:42:30.500Z,13.60
2018-10-07T04:44:57.640Z,13.60
2018-10-07T04:47:24.784Z,13.60
2018-10-07T04:49:51.998Z,13.60
2018-10-07T04:52:19.129Z,13.60
2018-10-07T04:54:46.325Z,13.60
2018-10-07T04:57:13.503Z,13.60
2018-10-07T04:59:40.634Z,13.60
2018-10-07T05:02:07.737Z,13.60
2018-10-07T05:04:35.348Z,13.50
2018-10-07T05:07:02.532Z,13.50
2018-10-07T05:09:29.717Z,13.50
2018-10-07T05:11:58.355Z,13.40
2018-10-07T05:14:25.408Z,13.40
2018-10-07T05:16:52.909Z,13.30
2018-10-07T05:19:20.295Z,13.30
2018-10-07T05:21:47.579Z,13.40
2018-10-07T05:24:14.762Z,13.40
2018-10-07T05:26:41.923Z,13.30
2018-10-07T05:29:09.063Z,13.20
2018-10-07T05:31:36.181Z,13.20
2018-10-07T05:34:03.361Z,13.20
2018-10-07T05:36:30.552Z,13.20
2018-10-07T05:38:57.694Z,13.20
2018-10-07T05:41:24.807Z,13.20
2018-10-07T05:43:51.936Z,13.20
2018-10-07T05:46:19.209Z,13.20
2018-10-07T05:48:46.298Z,13.20
2018-10-07T05:51:13.497Z,13.20
2018-10-07T05:53:40.642Z,13.20
2018-10-07T05:56:07.757Z,13.20
2018-10-07T05:58:35.471Z,13.20
2018-10-07T06:01:07.292Z,13.20
2018-10-07T06:04:42.357Z,13.20
2018-10-07T06:07:09.529Z,13.10
2018-10-07T06:09:37.062Z,13.20
2018-10-07T06:12:04.352Z,13.30
2018-10-07T06:14:43.143Z,13.30
2018-10-07T06:17:10.245Z,13.40
2018-10-07T06:19:37.380Z,13.40
2018-10-07T06:22:05.061Z,13.40
2018-10-07T06:24:32.929Z,13.40
2018-10-07T06:27:00.070Z,13.50
2018-10-07T06:29:27.293Z,13.60
2018-10-07T06:31:54.691Z,13.70
2018-10-07T06:34:22.089Z,13.80
2018-10-07T06:36:49.250Z,14.00
2018-10-07T06:39:16.462Z,14.20
2018-10-07T06:41:44.766Z,14.20
2018-10-07T06:44:11.935Z,14.30
2018-10-07T06:46:39.363Z,14.30
2018-10-07T06:49:06.521Z,14.40
2018-10-07T06:51:35.130Z,14.50
2018-10-07T06:54:02.388Z,14.60
2018-10-07T06:56:29.558Z,14.60
2018-10-07T06:58:57.853Z,14.70
2018-10-07T07:01:25.182Z,14.70
2018-10-07T07:03:52.396Z,14.90
2018-10-07T07:06:19.608Z,14.90
2018-10-07T07:08:46.794Z,15.00
2018-10-07T07:11:13.928Z,15.10
2018-10-07T07:13:41.121Z,15.20
2018-10-07T07:16:08.376Z,15.20
2018-10-07T07:18:35.536Z,15.30
2018-10-07T07:21:02.745Z,15.40
2018-10-07T07:23:29.933Z,15.40
2018-10-07T07:25:57.041Z,15.50
2018-10-07T07:28:25.254Z,15.50
2018-10-07T07:30:52.477Z,15.60
2018-10-07T07:33:19.670Z,15.60
2018-10-07T07:35:46.817Z,15.50
2018-10-07T07:38:14.373Z,15.70
2018-10-07T07:40:41.870Z,15.80
2018-10-07T07:43:10.456Z,15.80
2018-10-07T07:45:37.659Z,15.70
2018-10-07T07:48:05.760Z,15.70
2018-10-07T07:50:33.105Z,15.70
2018-10-07T07:53:00.585Z,15.80
2018-10-07T07:55:27.812Z,15.90
2018-10-07T07:57:54.974Z,16.00
2018-10-07T08:00:22.113Z,16.00
2018-10-07T08:02:49.625Z,16.10
2018-10-07T08:05:16.847Z,16.20
2018-10-07T08:07:44.150Z,16.30
2018-10-07T08:10:11.389Z,16.40
2018-10-07T08:12:39.204Z,16.50
2018-10-07T08:15:06.738Z,16.50
2018-10-07T08:17:34.583Z,16.50
2018-10-07T08:20:01.783Z,16.30
2018-10-07T08:22:28.986Z,16.20
2018-10-07T08:24:56.214Z,16.20
2018-10-07T08:27:23.497Z,16.30
2018-10-07T08:29:57.438Z,16.40
2018-10-07T08:32:24.792Z,16.30
2018-10-07T08:34:51.975Z,16.30
2018-10-07T08:37:19.145Z,16.40
2018-10-07T08:39:46.612Z,16.40
2018-10-07T08:42:14.089Z,16.40
2018-10-07T08:44:41.411Z,16.20
2018-10-07T08:47:08.863Z,16.10
2018-10-07T08:49:36.310Z,16.10
2018-10-07T08:52:03.923Z,16.10
2018-10-07T08:54:31.062Z,16.20
2018-10-07T08:57:05.640Z,16.30
2018-10-07T08:59:33.750Z,16.40
2018-10-07T09:02:01.144Z,16.40
2018-10-07T09:04:28.294Z,16.70
2018-10-07T09:06:55.509Z,16.60
2018-10-07T09:09:23.018Z,16.60
2018-10-07T09:11:50.213Z,16.60
2018-10-07T09:14:17.540Z,16.80
2018-10-07T09:16:45.261Z,16.90
2018-10-07T09:19:12.428Z,17.00
2018-10-07T09:21:39.665Z,16.90
2018-10-07T09:24:06.908Z,16.70
2018-10-07T09:26:34.063Z,16.60
2018-10-07T09:29:01.647Z,16.70
2018-10-07T09:31:29.105Z,16.90
2018-10-07T09:33:56.326Z,17.00
2018-10-07T09:36:24.231Z,17.00
2018-10-07T09:38:51.588Z,17.20
2018-10-07T09:41:18.748Z,17.30
2018-10-07T09:43:46.310Z,17.30
2018-10-07T09:46:13.545Z,17.40
2018-10-07T09:48:42.129Z,17.30
2018-10-07T09:51:10.253Z,17.30
2018-10-07T09:53:37.428Z,17.30
2018-10-07T09:56:04.573Z,17.30
2018-10-07T09:58:31.801Z,17.40
2018-10-07T10:00:58.936Z,17.50
2018-10-07T10:03:26.180Z,17.50
2018-10-07T10:05:53.309Z,17.60
2018-10-07T10:08:20.472Z,17.60
2018-10-07T10:10:48.448Z,17.40
2018-10-07T10:13:15.601Z,17.40
2018-10-07T10:15:42.987Z,17.50
2018-10-07T10:18:20.376Z,17.60
2018-10-07T10:21:59.136Z,17.80
2018-10-07T10:25:02.573Z,18.00
2018-10-07T10:27:41.540Z,17.90
2018-10-07T10:30:19.845Z,17.80
2018-10-07T10:33:00.740Z,17.90
2018-10-07T10:35:37.993Z,17.90
2018-10-07T10:38:16.029Z,17.50
2018-10-07T10:40:51.480Z,17.50
2018-10-07T10:43:27.207Z,17.50
2018-10-07T10:48:09.073Z,17.50
2018-10-07T10:50:45.100Z,17.50
2018-10-07T10:53:25.089Z,17.60
2018-10-07T10:56:02.270Z,17.40
2018-10-07T10:58:39.628Z,17.50
2018-10-07T11:01:14.084Z,17.70
2018-10-07T11:03:58.911Z,17.90
2018-10-07T11:06:39.943Z,17.80
2018-10-07T11:09:12.216Z,17.40
2018-10-07T11:11:51.043Z,17.30
2018-10-07T11:16:27.409Z,17.40
2018-10-07T11:19:02.188Z,17.60
2018-10-07T11:21:50.729Z,18.00
2018-10-07T11:24:31.082Z,18.00
2018-10-07T11:27:07.468Z,18.10
2018-10-07T11:29:45.407Z,17.70
2018-10-07T11:32:19.416Z,17.90
2018-10-07T11:35:09.612Z,17.90
2018-10-07T11:37:59.498Z,17.90
2018-10-07T11:40:38.448Z,17.90
2018-10-07T11:44:14.750Z,18.00
2018-10-07T11:49:09.034Z,18.00
2018-10-07T11:51:47.510Z,18.10
2018-10-07T11:54:17.941Z,18.20
2018-10-07T11:56:45.271Z,18.30
2018-10-07T11:59:12.564Z,18.50
2018-10-07T12:01:39.695Z,18.70
2018-10-07T12:04:06.869Z,18.70
2018-10-07T12:06:41.593Z,18.60
2018-10-07T12:09:08.847Z,18.80
2018-10-07T12:11:35.983Z,19.20
2018-10-07T12:14:03.135Z,19.30
2018-10-07T12:16:30.329Z,19.40
2018-10-07T12:18:58.504Z,19.20
2018-10-07T12:21:25.732Z,19.00
2018-10-07T12:23:53.994Z,19.10
2018-10-07T12:26:21.440Z,19.10
2018-10-07T12:28:56.624Z,19.00
2018-10-07T12:31:23.744Z,18.90
2018-10-07T12:33:51.729Z,19.00
2018-10-07T12:36:18.900Z,19.20
2018-10-07T12:38:46.323Z,19.30
2018-10-07T12:41:13.470Z,18.90
2018-10-07T12:43:40.766Z,18.60
2018-10-07T12:46:08.202Z,18.40
2018-10-07T12:48:37.081Z,18.20
2018-10-07T12:51:04.503Z,17.90
2018-10-07T12:53:31.798Z,17.70
2018-10-07T12:56:12.721Z,17.50
2018-10-07T12:58:40.355Z,17.50
2018-10-07T13:01:07.625Z,17.40
2018-10-07T13:03:34.770Z,17.10
2018-10-07T13:06:02.676Z,17.10
2018-10-07T13:08:31.090Z,17.00
2018-10-07T13:10:58.339Z,16.90
2018-10-07T13:13:25.576Z,16.80
2018-10-07T13:15:53.932Z,16.70
2018-10-07T13:18:21.704Z,16.90
2018-10-07T13:20:48.885Z,17.00
2018-10-07T13:23:16.213Z,17.00
2018-10-07T13:25:43.514Z,17.10
2018-10-07T13:28:11.017Z,17.10
2018-10-07T13:30:38.222Z,16.70
2018-10-07T13:33:05.735Z,16.50
2018-10-07T13:35:33.040Z,16.30
2018-10-07T13:38:02.354Z,16.40
2018-10-07T13:40:29.565Z,16.50
2018-10-07T13:42:56.841Z,16.50
2018-10-07T13:45:24.141Z,16.50
2018-10-07T13:47:51.385Z,16.40
2018-10-07T13:50:21.830Z,16.50
2018-10-07T13:52:49.320Z,16.40
2018-10-07T13:55:16.643Z,16.20
2018-10-07T13:57:43.847Z,16.10
2018-10-07T14:00:12.193Z,16.20
2018-10-07T14:02:39.492Z,16.00
2018-10-07T14:05:06.677Z,16.10
2018-10-07T14:07:34.145Z,16.40
2018-10-07T14:10:01.344Z,16.70
2018-10-07T14:12:28.580Z,16.90
2018-10-07T14:14:56.500Z,16.80
2018-10-07T14:17:23.764Z,16.70
2018-10-07T14:19:51.115Z,16.60
2018-10-07T14:22:18.560Z,16.40
2018-10-07T14:24:45.760Z,16.20
2018-10-07T14:27:12.875Z,16.10
2018-10-07T14:29:40.094Z,16.00
2018-10-07T14:32:07.203Z,16.00
2018-10-07T14:34:34.330Z,15.70
2018-10-07T14:37:01.593Z,15.60
2018-10-07T14:39:28.788Z,15.70
2018-10-07T14:41:55.921Z,15.80
2018-10-07T14:44:23.151Z,15.70
2018-10-07T14:46:50.279Z,15.60
2018-10-07T14:49:17.553Z,15.40
2018-10-07T14:51:44.669Z,15.40
2018-10-07T14:54:11.794Z,15.50
2018-10-07T14:56:38.937Z,15.60
2018-10-07T14:59:06.165Z,15.60
2018-10-07T15:01:33.419Z,15.80
2018-10-07T15:04:00.887Z,15.80
2018-10-07T15:06:28.060Z,15.70
2018-10-07T15:08:55.323Z,15.80
2018-10-07T15:11:22.560Z,15.60
2018-10-07T15:13:49.682Z,15.60
2018-10-07T15:16:16.908Z,15.60
2018-10-07T15:18:44.027Z,15.70
2018-10-07T15:21:11.347Z,15.70
2018-10-07T15:23:38.764Z,15.60
2018-10-07T15:26:06.062Z,15.60
2018-10-07T15:28:33.496Z,15.80
2018-10-07T15:31:00.877Z,15.90
2018-10-07T15:33:28.099Z,15.90
2018-10-07T15:35:56.035Z,16.10
2018-10-07T15:38:23.276Z,16.40
2018-10-07T15:40:50.537Z,16.60
2018-10-07T15:43:17.835Z,16.60
2018-10-07T15:45:45.047Z,16.60
2018-10-07T15:48:12.209Z,16.60
2018-10-07T15:50:39.337Z,16.70
2018-10-07T15:53:06.672Z,16.50
2018-10-07T15:55:33.873Z,16.40
2018-10-07T15:58:01.111Z,16.50
2018-10-07T16:00:28.403Z,16.80
2018-10-07T16:02:55.774Z,16.60
2018-10-07T16:05:22.966Z,16.40
2018-10-07T16:07:50.136Z,16.50
2018-10-07T16:10:17.510Z,16.60
2018-10-07T16:12:44.972Z,16.80
2018-10-07T16:15:12.254Z,16.70
2018-10-07T16:17:39.396Z,16.80
2018-10-07T16:20:06.553Z,16.60
2018-10-07T16:22:33.756Z,16.60
2018-10-07T16:25:01.680Z,16.60
2018-10-07T16:27:29.429Z,16.50
2018-10-07T16:29:57.847Z,16.40
2018-10-07T16:32:25.018Z,16.20
2018-10-07T16:34:52.204Z,15.90
2018-10-07T16:37:19.350Z,15.70
2018-10-07T16:39:48.384Z,15.50
2018-10-07T16:42:16.669Z,15.30
2018-10-07T16:44:44.347Z,15.10
2018-10-07T16:47:12.982Z,15.00
2018-10-07T16:49:40.371Z,15.00
2018-10-07T16:52:07.775Z,14.90
2018-10-07T16:54:35.554Z,14.90
2018-10-07T16:57:02.751Z,14.90
2018-10-07T16:59:30.425Z,15.00
2018-10-07T17:01:57.710Z,15.00
2018-10-07T17:04:25.191Z,14.80
2018-10-07T17:06:53.664Z,14.80
2018-10-07T17:09:21.574Z,14.70
2018-10-07T17:11:51.201Z,14.70
2018-10-07T17:14:18.889Z,14.60
2018-10-07T17:16:46.220Z,14.70
2018-10-07T17:19:13.467Z,14.70
2018-10-07T17:21:40.681Z,14.70
2018-10-07T17:24:09.016Z,14.70
2018-10-07T17:26:36.497Z,14.60
2018-10-07T17:29:03.814Z,14.60
2018-10-07T17:31:31.064Z,14.60
2018-10-07T17:33:58.927Z,14.50
2018-10-07T17:36:26.276Z,14.40
2018-10-07T17:38:53.860Z,14.40
2018-10-07T17:41:21.145Z,14.40
2018-10-07T17:43:48.793Z,14.40
2018-10-07T17:46:15.948Z,14.40
2018-10-07T17:48:43.862Z,14.40
2018-10-07T17:51:11.007Z,14.40
2018-10-07T17:53:38.324Z,14.30
2018-10-07T17:56:06.733Z,14.30
2018-10-07T17:58:33.877Z,14.30
2018-10-07T18:01:01.066Z,14.40
2018-10-07T18:03:28.282Z,14.30
2018-10-07T18:05:55.549Z,14.20
2018-10-07T18:08:22.821Z,14.20
2018-10-07T18:10:50.142Z,14.20
2018-10-07T18:13:18.349Z,14.20
2018-10-07T18:15:46.374Z,14.40
2018-10-07T18:18:14.002Z,14.40
2018-10-07T18:20:41.201Z,14.30
2018-10-07T18:23:08.468Z,14.30
2018-10-07T18:25:35.768Z,14.30
2018-10-07T18:28:03.028Z,14.20
2018-10-07T18:30:31.769Z,14.20
2018-10-07T18:32:59.047Z,14.20
2018-10-07T18:35:26.264Z,14.20
2018-10-07T18:37:53.586Z,14.10
2018-10-07T18:40:20.832Z,14.00
2018-10-07T18:42:48.364Z,14.10
2018-10-07T18:45:17.447Z,14.00
2018-10-07T18:47:44.781Z,14.00
2018-10-07T18:50:12.907Z,14.10
2018-10-07T18:52:41.423Z,14.10
2018-10-07T18:55:09.119Z,14.00
2018-10-07T18:57:37.213Z,13.80
2018-10-07T19:00:07.733Z,13.90
2018-10-07T19:02:36.427Z,13.90
2018-10-07T19:05:03.744Z,14.00
2018-10-07T19:07:31.441Z,14.00
2018-10-07T19:09:59.939Z,14.00
2018-10-07T19:12:27.377Z,14.10
2018-10-07T19:14:54.662Z,14.10
2018-10-07T19:17:24.200Z,14.20
2018-10-07T19:19:52.941Z,14.20
2018-10-07T19:22:21.994Z,14.20
2018-10-07T19:24:49.899Z,14.20
2018-10-07T19:27:17.772Z,14.20
2018-10-07T19:29:46.496Z,14.20
2018-10-07T19:32:13.903Z,14.10
2018-10-07T19:34:41.361Z,14.10
2018-10-07T19:37:10.081Z,14.10
2018-10-07T19:39:37.081Z,14.00
2018-10-07T19:42:04.477Z,13.90
2018-10-07T19:44:31.804Z,13.80
2018-10-07T19:46:59.036Z,13.70
2018-10-07T19:49:27.337Z,13.70
2018-10-07T19:51:54.963Z,13.70
2018-10-07T19:54:22.240Z,13.60
2018-10-07T19:56:49.530Z,13.60
2018-10-07T19:59:17.481Z,13.60
2018-10-07T20:01:45.449Z,13.60
2018-10-07T20:04:12.943Z,13.60
2018-10-07T20:06:40.358Z,13.50
2018-10-07T20:09:10.050Z,13.50
2018-10-07T20:11:38.349Z,13.60
2018-10-07T20:14:06.196Z,13.50
2018-10-07T20:16:33.654Z,13.50
2018-10-07T20:19:01.045Z,13.50
2018-10-07T20:21:28.401Z,13.40
2018-10-07T20:23:56.925Z,13.40
2018-10-07T20:26:24.825Z,13.40
2018-10-07T20:28:53.216Z,13.30
2018-10-07T20:31:20.508Z,13.30
2018-10-07T20:33:47.853Z,13.20
2018-10-07T20:36:15.117Z,13.20
2018-10-07T20:38:43.052Z,13.20
2018-10-07T20:41:10.778Z,13.20
2018-10-07T20:43:38.154Z,13.20
2018-10-07T20:46:05.478Z,13.30
2018-10-07T20:48:33.137Z,13.20
2018-10-07T20:51:01.560Z,13.10
2018-10-07T20:53:28.778Z,13.20
2018-10-07T20:55:55.929Z,13.20
2018-10-07T20:58:25.673Z,13.20
2018-10-07T21:00:52.877Z,13.20
2018-10-07T21:03:20.448Z,13.20
2018-10-07T21:05:47.877Z,13.30
2018-10-07T21:08:15.575Z,13.30
2018-10-07T21:10:42.749Z,13.20
2018-10-07T21:13:09.966Z,13.20
2018-10-07T21:15:38.325Z,13.20
2018-10-07T21:18:06.854Z,13.20
2018-10-07T21:20:34.621Z,13.30
2018-10-07T21:23:02.845Z,13.30
2018-10-07T21:25:30.919Z,13.40
2018-10-07T21:27:58.032Z,13.30
2018-10-07T21:30:25.298Z,13.30
2018-10-07T21:32:55.009Z,13.30
2018-10-07T21:35:22.152Z,13.30
2018-10-07T21:37:51.870Z,13.40
2018-10-07T21:40:19.484Z,13.30
2018-10-07T21:42:48.079Z,13.30
2018-10-07T21:45:15.327Z,13.30
2018-10-07T21:47:42.476Z,13.30
2018-10-07T21:50:10.765Z,13.40
2018-10-07T21:52:38.048Z,13.30
2018-10-07T21:55:06.284Z,13.20
2018-10-07T21:57:33.417Z,13.20
2018-10-07T22:00:01.748Z,13.20
2018-10-07T22:02:30.086Z,13.10
2018-10-07T22:04:58.892Z,13.10
2018-10-07T22:07:33.145Z,13.20
2018-10-07T22:10:00.697Z,13.30
2018-10-07T22:12:28.413Z,13.30
2018-10-07T22:17:30.706Z,13.30
2018-10-07T22:19:58.053Z,13.30
2018-10-07T22:22:25.535Z,13.30
2018-10-07T22:24:52.888Z,13.20
2018-10-07T22:27:21.041Z,13.20
2018-10-07T22:29:48.541Z,13.20
2018-10-07T22:32:16.965Z,13.20
2018-10-07T22:34:45.212Z,13.30
2018-10-07T22:37:12.364Z,13.30
2018-10-07T22:39:39.770Z,13.30
2018-10-07T22:42:08.020Z,13.30
2018-10-07T22:44:35.640Z,13.30
2018-10-07T22:47:04.780Z,13.30
2018-10-07T22:49:31.919Z,13.20
2018-10-07T22:51:59.502Z,13.10
2018-10-07T22:54:27.101Z,13.10
2018-10-07T22:56:54.349Z,13.10
2018-10-07T22:59:21.452Z,13.10
2018-10-07T23:01:48.736Z,13.10
2018-10-07T23:04:15.890Z,13.10
2018-10-07T23:06:43.044Z,13.00
2018-10-07T23:09:11.402Z,13.00
2018-10-07T23:11:38.535Z,12.90
2018-10-07T23:14:05.916Z,12.90
2018-10-07T23:16:33.115Z,12.70
2018-10-07T23:19:00.317Z,12.70
2018-10-07T23:21:27.532Z,12.70
2018-10-07T23:23:54.824Z,12.70
2018-10-07T23:26:22.089Z,12.60
2018-10-07T23:28:49.237Z,12.60
2018-10-07T23:31:16.414Z,12.50
2018-10-07T23:33:43.499Z,12.50
2018-10-07T23:36:10.661Z,12.40
2018-10-07T23:38:37.778Z,12.40
2018-10-07T23:41:05.047Z,12.30
2018-10-07T23:43:32.164Z,12.30
2018-10-07T23:45:59.335Z,12.40
2018-10-07T23:48:26.486Z,12.40
2018-10-07T23:50:53.705Z,12.30
2018-10-07T23:53:20.806Z,12.30
2018-10-07T23:55:47.941Z,12.40
2018-10-07T23:58:15.125Z,12.40
